Time;durP1;ratioP1;P1;durP2;ratioP2;P2;SDS_P1;SDS_P2;PMS_P1;PMS_P2;Temp;Humidity;BMP_temperature;BMP_pressure;BME280_temperature;BME280_humidity;BME280_pressure;Samples;Min_cycle;Max_cycle;Signal;HPM_P1;HPM_P2
2022/11/02 00:01:40;;;;;;;4.87;1.87;;;;;;;;;;5076951;28;20448;-66
2022/11/02 00:04:08;;;;;;;7.07;1.80;;;;;;;;;;5075894;28;20462;-65
2022/11/02 00:06:35;;;;;;;6.20;1.80;;;;;;;;;;5076318;28;20453;-66
2022/11/02 00:09:02;;;;;;;5.57;1.47;;;;;;;;;;5076178;28;20439;-64
2022/11/02 00:11:29;;;;;;;5.93;1.90;;;;;;;;;;5075703;28;20950;-66
2022/11/02 00:13:57;;;;;;;6.70;1.73;;;;;;;;;;5074874;28;20828;-65
2022/11/02 00:16:24;;;;;;;9.50;2.23;;;;;;;;;;5074774;28;21038;-65
2022/11/02 00:18:52;;;;;;;8.67;1.90;;;;;;;;;;5074640;28;20449;-66
2022/11/02 00:21:21;;;;;;;7.13;1.83;;;;;;;;;;5074659;28;20456;-64
2022/11/02 00:23:49;;;;;;;3.80;1.33;;;;;;;;;;5073710;28;20481;-65
2022/11/02 00:26:16;;;;;;;9.27;2.37;;;;;;;;;;5075704;28;20440;-66
2022/11/02 00:28:43;;;;;;;5.20;2.07;;;;;;;;;;5077845;28;20446;-66
2022/11/02 00:31:10;;;;;;;4.50;2.13;;;;;;;;;;5079375;28;20956;-66
2022/11/02 00:33:37;;;;;;;6.67;1.87;;;;;;;;;;5085246;28;20465;-65
2022/11/02 00:36:04;;;;;;;8.53;1.57;;;;;;;;;;5078793;28;20850;-65
2022/11/02 00:38:33;;;;;;;9.37;1.63;;;;;;;;;;5077753;28;20459;-66
2022/11/02 00:41:00;;;;;;;6.57;1.50;;;;;;;;;;5077652;28;20448;-64
2022/11/02 00:43:27;;;;;;;9.03;2.10;;;;;;;;;;5076949;28;20965;-63
2022/11/02 00:45:54;;;;;;;7.50;1.73;;;;;;;;;;5076994;28;20917;-64
2022/11/02 00:48:21;;;;;;;10.80;2.10;;;;;;;;;;5077661;28;20497;-65
2022/11/02 00:50:49;;;;;;;8.20;2.43;;;;;;;;;;5078163;28;20456;-63
2022/11/02 00:53:16;;;;;;;7.03;2.03;;;;;;;;;;5077779;28;20827;-64
2022/11/02 00:55:45;;;;;;;7.13;1.80;;;;;;;;;;5077139;28;20477;-64
2022/11/02 00:58:12;;;;;;;5.87;1.93;;;;;;;;;;5078061;28;20525;-64
2022/11/02 01:00:39;;;;;;;9.73;2.70;;;;;;;;;;5078048;28;20445;-64
2022/11/02 01:03:06;;;;;;;4.77;1.60;;;;;;;;;;5077179;28;20449;-65
2022/11/02 01:05:33;;;;;;;10.40;1.90;;;;;;;;;;5076978;28;20460;-65
2022/11/02 01:08:00;;;;;;;4.23;1.80;;;;;;;;;;5077043;28;20450;-66
2022/11/02 01:10:27;;;;;;;10.27;2.10;;;;;;;;;;5076452;28;20452;-63
2022/11/02 01:12:55;;;;;;;6.57;1.97;;;;;;;;;;5076279;28;20441;-65
2022/11/02 01:15:23;;;;;;;6.07;1.40;;;;;;;;;;5076155;28;20492;-65
2022/11/02 01:17:50;;;;;;;6.33;1.80;;;;;;;;;;5076573;28;20452;-65
2022/11/02 01:20:17;;;;;;;7.53;2.40;;;;;;;;;;5076262;28;20445;-66
2022/11/02 01:22:44;;;;;;;5.27;1.60;;;;;;;;;;5076239;28;20445;-65
2022/11/02 01:25:11;;;;;;;5.57;1.77;;;;;;;;;;5075578;28;20484;-66
2022/11/02 01:27:38;;;;;;;6.70;1.93;;;;;;;;;;5075939;28;20451;-65
2022/11/02 01:30:07;;;;;;;5.97;2.53;;;;;;;;;;5075916;28;20445;-65
2022/11/02 01:32:35;;;;;;;9.77;2.50;;;;;;;;;;5076147;28;20451;-64
2022/11/02 01:35:02;;;;;;;5.27;2.07;;;;;;;;;;5076664;28;20478;-64
2022/11/02 01:37:29;;;;;;;8.10;1.90;;;;;;;;;;5076804;28;20463;-64
2022/11/02 01:39:56;;;;;;;9.13;2.07;;;;;;;;;;5076532;28;20449;-65
2022/11/02 01:42:24;;;;;;;6.23;2.07;;;;;;;;;;5076441;28;20455;-63
2022/11/02 01:44:51;;;;;;;4.83;1.73;;;;;;;;;;5076480;28;20467;-64
2022/11/02 01:47:21;;;;;;;8.53;2.33;;;;;;;;;;5076811;28;20455;-64
2022/11/02 01:49:49;;;;;;;5.70;1.90;;;;;;;;;;5076242;28;20452;-64
2022/11/02 01:52:18;;;;;;;6.13;1.60;;;;;;;;;;5076713;28;20780;-65
2022/11/02 01:54:47;;;;;;;4.70;1.77;;;;;;;;;;5075526;28;20845;-64
2022/11/02 01:57:17;;;;;;;6.97;2.40;;;;;;;;;;5075724;28;20452;-65
2022/11/02 01:59:46;;;;;;;4.17;1.50;;;;;;;;;;5075957;28;20964;-65
2022/11/02 02:02:17;;;;;;;4.30;1.87;;;;;;;;;;5075777;28;20440;-66
2022/11/02 02:04:45;;;;;;;7.03;1.80;;;;;;;;;;5075266;28;20452;-64
2022/11/02 02:07:14;;;;;;;5.67;1.30;;;;;;;;;;5075441;28;20451;-64
2022/11/02 02:09:41;;;;;;;9.00;2.53;;;;;;;;;;5075550;28;20469;-64
2022/11/02 02:12:08;;;;;;;5.43;1.90;;;;;;;;;;5074937;28;20453;-66
2022/11/02 02:14:36;;;;;;;5.73;1.57;;;;;;;;;;5074859;28;20491;-66
2022/11/02 02:17:19;;;;;;;5.87;2.13;;;;;;;;;;5074961;28;20445;-66
2022/11/02 02:19:52;;;;;;;2.93;1.60;;;;;;;;;;5075670;28;20430;-65
2022/11/02 02:22:43;;;;;;;5.33;1.93;;;;;;;;;;5076292;28;20432;-65
2022/11/02 02:25:21;;;;;;;7.43;2.80;;;;;;;;;;5059814;28;20924;-66
2022/11/02 02:27:56;;;;;;;4.87;1.50;;;;;;;;;;5075108;28;20474;-66
2022/11/02 02:30:23;;;;;;;5.93;1.63;;;;;;;;;;5075075;28;20428;-65
2022/11/02 02:32:54;;;;;;;12.37;1.87;;;;;;;;;;5074959;28;20448;-65
2022/11/02 02:35:24;;;;;;;6.20;1.80;;;;;;;;;;5074893;28;20490;-65
2022/11/02 02:37:54;;;;;;;5.73;2.20;;;;;;;;;;5075417;28;20453;-65
2022/11/02 02:40:24;;;;;;;4.50;1.50;;;;;;;;;;5075827;28;20443;-66
2022/11/02 02:42:55;;;;;;;11.57;2.00;;;;;;;;;;5075301;28;20449;-66
2022/11/02 02:45:25;;;;;;;9.13;2.40;;;;;;;;;;5074824;28;20459;-65
2022/11/02 02:47:55;;;;;;;6.70;1.97;;;;;;;;;;5074516;28;20450;-65
2022/11/02 02:50:24;;;;;;;3.50;1.73;;;;;;;;;;5073861;28;20443;-66
2022/11/02 02:52:53;;;;;;;6.57;1.83;;;;;;;;;;5075069;28;20518;-66
2022/11/02 02:55:22;;;;;;;4.73;1.77;;;;;;;;;;5074694;28;20476;-67
2022/11/02 02:57:50;;;;;;;7.93;2.03;;;;;;;;;;5074799;28;20959;-64
2022/11/02 03:00:19;;;;;;;10.77;2.10;;;;;;;;;;5074955;28;20449;-66
2022/11/02 03:02:59;;;;;;;5.60;1.30;;;;;;;;;;5074427;28;20446;-66
2022/11/02 03:05:27;;;;;;;6.00;1.57;;;;;;;;;;5074644;28;20463;-65
2022/11/02 03:07:55;;;;;;;4.80;1.83;;;;;;;;;;5075938;28;20441;-66
2022/11/02 03:10:27;;;;;;;7.53;2.30;;;;;;;;;;5084086;28;20442;-66
2022/11/02 03:13:00;;;;;;;4.57;1.70;;;;;;;;;;5085854;28;20438;-66
2022/11/02 03:15:34;;;;;;;4.83;1.60;;;;;;;;;;5079336;28;20494;-65
2022/11/02 03:18:04;;;;;;;7.17;1.80;;;;;;;;;;5075105;28;20424;-65
2022/11/02 03:20:34;;;;;;;6.80;2.13;;;;;;;;;;5074208;28;20453;-65
2022/11/02 03:23:05;;;;;;;8.70;1.97;;;;;;;;;;5075193;28;20439;-65
2022/11/02 03:25:39;;;;;;;2.80;1.57;;;;;;;;;;5073664;28;20467;-65
2022/11/02 03:28:10;;;;;;;3.67;1.60;;;;;;;;;;5074084;28;20805;-65
2022/11/02 03:30:40;;;;;;;5.33;1.93;;;;;;;;;;5074456;28;20430;-65
2022/11/02 03:33:09;;;;;;;9.80;2.10;;;;;;;;;;5074571;28;20439;-65
2022/11/02 03:35:39;;;;;;;6.87;1.83;;;;;;;;;;5073548;28;20493;-66
2022/11/02 03:38:10;;;;;;;10.57;2.07;;;;;;;;;;5074170;28;20429;-65
2022/11/02 03:40:39;;;;;;;7.70;2.73;;;;;;;;;;5073569;28;20946;-65
2022/11/02 03:43:07;;;;;;;5.13;1.87;;;;;;;;;;5073784;28;20452;-65
2022/11/02 03:45:37;;;;;;;5.73;2.63;;;;;;;;;;5073861;28;20474;-65
2022/11/02 03:48:07;;;;;;;8.83;1.93;;;;;;;;;;5073906;28;20452;-65
2022/11/02 03:50:35;;;;;;;3.60;1.40;;;;;;;;;;5074200;28;20427;-65
2022/11/02 03:53:07;;;;;;;4.50;1.73;;;;;;;;;;5075264;28;20811;-64
2022/11/02 03:55:36;;;;;;;5.50;1.80;;;;;;;;;;5075417;28;20489;-64
2022/11/02 03:58:03;;;;;;;7.03;1.80;;;;;;;;;;5076312;28;20438;-65
2022/11/02 04:00:33;;;;;;;4.93;1.63;;;;;;;;;;5073414;28;20466;-66
2022/11/02 04:03:02;;;;;;;6.57;1.60;;;;;;;;;;5073809;28;20497;-65
2022/11/02 04:05:32;;;;;;;14.60;1.90;;;;;;;;;;5073279;28;20476;-65
2022/11/02 04:10:27;;;;;;;7.30;1.83;;;;;;;;;;5113744;27;1240363;-67
2022/11/02 04:15:39;;;;;;;8.70;1.80;;;;;;;;;;5112544;28;20768;-66
2022/11/02 04:20:51;;;;;;;6.97;1.73;;;;;;;;;;5120687;28;20421;-65
2022/11/02 04:26:05;;;;;;;3.37;1.63;;;;;;;;;;5120957;28;20511;-66
2022/11/02 04:28:32;;;;;;;6.57;1.90;;;;;;;;;;5112927;28;20992;-65
2022/11/02 04:30:59;;;;;;;4.63;1.73;;;;;;;;;;5126221;28;20443;-66
2022/11/02 04:33:32;;;;;;;5.30;1.80;;;;;;;;;;5126276;28;20434;-65
2022/11/02 04:36:00;;;;;;;9.73;2.00;;;;;;;;;;5124120;28;20457;-65
2022/11/02 04:38:42;;;;;;;6.77;1.90;;;;;;;;;;5125080;28;20465;-65
2022/11/02 04:43:56;;;;;;;5.80;1.93;;;;;;;;;;5126328;28;20503;-65
2022/11/02 04:46:24;;;;;;;8.17;1.77;;;;;;;;;;5126035;28;20446;-64
2022/11/02 04:48:51;;;;;;;7.80;2.03;;;;;;;;;;5115690;28;20486;-65
2022/11/02 04:51:19;;;;;;;12.20;2.37;;;;;;;;;;5113043;28;20448;-67
2022/11/02 04:53:46;;;;;;;8.80;1.80;;;;;;;;;;5111450;28;20475;-64
2022/11/02 04:56:15;;;;;;;5.40;1.63;;;;;;;;;;5111960;28;20791;-66
2022/11/02 04:58:42;;;;;;;5.50;2.00;;;;;;;;;;5111120;28;20967;-66
2022/11/02 05:01:10;;;;;;;5.40;1.93;;;;;;;;;;5110829;28;20442;-65
2022/11/02 05:03:37;;;;;;;7.10;2.07;;;;;;;;;;5110611;28;20979;-66
2022/11/02 05:06:04;;;;;;;5.93;1.80;;;;;;;;;;5110561;28;20455;-66
2022/11/02 05:08:31;;;;;;;10.63;2.30;;;;;;;;;;5110705;28;20454;-65
2022/11/02 05:10:59;;;;;;;11.47;2.00;;;;;;;;;;5111347;28;20443;-65
2022/11/02 05:13:27;;;;;;;4.77;1.70;;;;;;;;;;5110522;28;20443;-65
2022/11/02 05:15:56;;;;;;;7.90;1.80;;;;;;;;;;5110738;28;20448;-66
2022/11/02 05:18:24;;;;;;;5.80;1.60;;;;;;;;;;5110556;28;20442;-65
2022/11/02 05:20:51;;;;;;;9.67;2.37;;;;;;;;;;5102202;28;20959;-64
2022/11/02 05:23:18;;;;;;;4.80;2.47;;;;;;;;;;5097509;28;20441;-64
2022/11/02 05:25:52;;;;;;;7.10;2.20;;;;;;;;;;5097459;28;20451;-65
2022/11/02 05:28:19;;;;;;;7.10;1.47;;;;;;;;;;5097508;28;20911;-64
2022/11/02 05:30:48;;;;;;;8.20;1.90;;;;;;;;;;5097764;28;20518;-66
2022/11/02 05:33:15;;;;;;;4.20;2.00;;;;;;;;;;5097675;28;20448;-65
2022/11/02 05:35:42;;;;;;;5.97;1.93;;;;;;;;;;5096426;28;20450;-65
2022/11/02 05:38:09;;;;;;;5.70;1.90;;;;;;;;;;5085669;28;20459;-64
2022/11/02 05:40:39;;;;;;;4.60;1.70;;;;;;;;;;5088196;28;20441;-66
2022/11/02 05:43:06;;;;;;;4.60;2.10;;;;;;;;;;5096446;28;20465;-66
2022/11/02 05:45:33;;;;;;;9.93;1.90;;;;;;;;;;5096146;28;20459;-65
2022/11/02 05:48:02;;;;;;;4.20;1.70;;;;;;;;;;5096228;28;20984;-66
2022/11/02 05:50:29;;;;;;;6.20;1.90;;;;;;;;;;5092300;28;20478;-65
2022/11/02 05:52:56;;;;;;;5.73;2.03;;;;;;;;;;5087775;28;20447;-63
2022/11/02 05:55:24;;;;;;;5.67;1.90;;;;;;;;;;5088036;28;20783;-66
2022/11/02 05:57:52;;;;;;;5.20;2.37;;;;;;;;;;5075734;28;20449;-65
2022/11/02 06:00:19;;;;;;;4.23;2.20;;;;;;;;;;5087691;28;20733;-65
2022/11/02 06:02:46;;;;;;;4.17;1.70;;;;;;;;;;5080905;28;20459;-63
2022/11/02 06:05:15;;;;;;;9.07;2.23;;;;;;;;;;5096001;28;20459;-65
2022/11/02 06:07:42;;;;;;;6.60;2.47;;;;;;;;;;5098218;28;20452;-66
2022/11/02 06:10:09;;;;;;;7.93;1.77;;;;;;;;;;5085879;28;20483;-65
2022/11/02 06:12:36;;;;;;;3.17;1.30;;;;;;;;;;5075465;28;20500;-66
2022/11/02 06:15:04;;;;;;;3.97;1.70;;;;;;;;;;5084560;28;20469;-66
2022/11/02 06:17:36;;;;;;;6.73;2.30;;;;;;;;;;5103667;28;20449;-66
2022/11/02 06:20:04;;;;;;;4.33;2.33;;;;;;;;;;5104988;28;20424;-66
2022/11/02 06:22:38;;;;;;;5.77;2.10;;;;;;;;;;5103947;28;20511;-65
2022/11/02 06:25:06;;;;;;;12.27;2.50;;;;;;;;;;5078211;28;20838;-67
2022/11/02 06:27:33;;;;;;;7.50;2.73;;;;;;;;;;5076242;28;20474;-67
2022/11/02 06:30:00;;;;;;;8.70;2.90;;;;;;;;;;5078319;28;20475;-65
2022/11/02 06:32:27;;;;;;;10.00;1.77;;;;;;;;;;5084334;28;20448;-65
2022/11/02 06:34:54;;;;;;;6.23;2.30;;;;;;;;;;5093180;28;20460;-65
2022/11/02 06:37:21;;;;;;;6.70;2.13;;;;;;;;;;5097775;28;20464;-64
2022/11/02 06:39:50;;;;;;;7.43;2.70;;;;;;;;;;5095951;28;20471;-66
2022/11/02 06:42:17;;;;;;;7.90;2.57;;;;;;;;;;5094137;28;20453;-65
2022/11/02 06:44:44;;;;;;;8.93;2.70;;;;;;;;;;5094452;28;20502;-65
2022/11/02 06:47:11;;;;;;;10.10;1.83;;;;;;;;;;5076077;28;20445;-65
2022/11/02 06:49:38;;;;;;;5.00;1.80;;;;;;;;;;5075893;28;20479;-65
2022/11/02 06:52:05;;;;;;;8.13;2.20;;;;;;;;;;5076708;28;20457;-66
2022/11/02 06:54:32;;;;;;;4.70;1.67;;;;;;;;;;5076206;28;20852;-63
2022/11/02 06:57:01;;;;;;;5.53;2.10;;;;;;;;;;5087483;28;20930;-66
2022/11/02 06:59:28;;;;;;;7.70;1.87;;;;;;;;;;5075347;28;20437;-63
2022/11/02 07:01:55;;;;;;;5.97;2.20;;;;;;;;;;5089511;28;20447;-66
2022/11/02 07:04:22;;;;;;;4.77;2.30;;;;;;;;;;5095652;28;20478;-66
2022/11/02 07:06:49;;;;;;;5.47;2.13;;;;;;;;;;5094008;28;20470;-66
2022/11/02 07:09:16;;;;;;;6.33;1.70;;;;;;;;;;5075857;28;20538;-66
2022/11/02 07:11:43;;;;;;;9.80;2.80;;;;;;;;;;5075768;28;20449;-65
2022/11/02 07:14:12;;;;;;;6.10;2.20;;;;;;;;;;5074823;28;20889;-68
2022/11/02 07:16:39;;;;;;;8.50;2.00;;;;;;;;;;5074896;28;20450;-65
2022/11/02 07:19:06;;;;;;;9.50;1.97;;;;;;;;;;5075941;28;20452;-65
2022/11/02 07:21:33;;;;;;;8.00;1.63;;;;;;;;;;5075281;28;20464;-65
2022/11/02 07:24:00;;;;;;;12.57;2.40;;;;;;;;;;5074278;28;20468;-65
2022/11/02 07:26:27;;;;;;;6.50;1.77;;;;;;;;;;5074772;28;20449;-65
2022/11/02 07:28:54;;;;;;;6.37;2.07;;;;;;;;;;5088604;28;20529;-66
2022/11/02 07:31:22;;;;;;;5.03;2.67;;;;;;;;;;5094339;28;20821;-65
2022/11/02 07:33:50;;;;;;;4.47;1.70;;;;;;;;;;5094846;28;20466;-65
2022/11/02 07:36:18;;;;;;;6.50;1.93;;;;;;;;;;5094524;28;20454;-66
2022/11/02 07:38:45;;;;;;;3.60;2.17;;;;;;;;;;5095063;28;20448;-66
2022/11/02 07:41:12;;;;;;;4.10;1.90;;;;;;;;;;5095819;28;20491;-66
2022/11/02 07:43:39;;;;;;;7.30;1.70;;;;;;;;;;5095165;28;20470;-66
2022/11/02 07:46:06;;;;;;;4.30;1.50;;;;;;;;;;5094769;28;20819;-65
2022/11/02 07:48:35;;;;;;;3.77;2.03;;;;;;;;;;5094313;28;20980;-66
2022/11/02 07:51:02;;;;;;;5.23;2.63;;;;;;;;;;5095096;28;20482;-67
2022/11/02 07:53:29;;;;;;;4.77;1.90;;;;;;;;;;5094191;28;20449;-64
2022/11/02 07:55:57;;;;;;;9.47;3.20;;;;;;;;;;5094483;28;20453;-65
2022/11/02 07:58:24;;;;;;;11.63;2.23;;;;;;;;;;5095791;28;20484;-64
2022/11/02 08:00:51;;;;;;;4.20;2.20;;;;;;;;;;5095347;28;20450;-65
2022/11/02 08:03:18;;;;;;;8.97;2.30;;;;;;;;;;5094582;28;20453;-66
2022/11/02 08:05:46;;;;;;;8.70;2.53;;;;;;;;;;5094215;28;20443;-64
2022/11/02 08:08:14;;;;;;;11.00;2.27;;;;;;;;;;5093700;28;20464;-66
2022/11/02 08:10:41;;;;;;;8.47;2.60;;;;;;;;;;5093184;28;20556;-67
2022/11/02 08:13:09;;;;;;;5.80;2.40;;;;;;;;;;5093742;28;20442;-66
2022/11/02 08:15:36;;;;;;;4.33;1.80;;;;;;;;;;5093535;28;20475;-66
2022/11/02 08:18:04;;;;;;;7.23;1.93;;;;;;;;;;5093930;28;20459;-67
2022/11/02 08:20:31;;;;;;;4.53;2.03;;;;;;;;;;5096843;28;20439;-67
2022/11/02 08:23:00;;;;;;;5.20;2.03;;;;;;;;;;5100963;28;20463;-67
2022/11/02 08:25:27;;;;;;;6.07;2.03;;;;;;;;;;5100110;28;20840;-66
2022/11/02 08:27:56;;;;;;;6.40;2.20;;;;;;;;;;5089388;28;20450;-67
2022/11/02 08:30:23;;;;;;;6.10;2.30;;;;;;;;;;5079781;28;20481;-65
2022/11/02 08:32:51;;;;;;;7.50;2.07;;;;;;;;;;5075588;28;20510;-66
2022/11/02 08:35:18;;;;;;;3.63;2.03;;;;;;;;;;5074504;28;20469;-67
2022/11/02 08:37:45;;;;;;;6.13;1.80;;;;;;;;;;5075332;28;20447;-68
2022/11/02 08:40:20;;;;;;;10.77;3.33;;;;;;;;;;5082300;28;20435;-69
2022/11/02 08:42:47;;;;;;;7.97;2.37;;;;;;;;;;5078329;28;20507;-65
2022/11/02 08:45:16;;;;;;;6.07;1.90;;;;;;;;;;5074116;28;20470;-66
2022/11/02 08:47:43;;;;;;;6.30;2.03;;;;;;;;;;5074226;28;20512;-66
2022/11/02 08:50:10;;;;;;;5.60;2.10;;;;;;;;;;5073372;28;20478;-67
2022/11/02 08:52:37;;;;;;;4.37;2.00;;;;;;;;;;5074825;28;20451;-67
2022/11/02 08:55:05;;;;;;;3.87;1.80;;;;;;;;;;5073857;28;20469;-67
2022/11/02 08:57:33;;;;;;;7.77;1.70;;;;;;;;;;5080281;28;20445;-67
2022/11/02 09:00:01;;;;;;;8.03;2.30;;;;;;;;;;5091209;28;20432;-67
2022/11/02 09:02:28;;;;;;;5.17;2.50;;;;;;;;;;5093105;28;20443;-66
2022/11/02 09:04:55;;;;;;;3.80;2.37;;;;;;;;;;5088677;28;20971;-67
2022/11/02 09:07:22;;;;;;;4.43;3.30;;;;;;;;;;5087613;28;20449;-69
2022/11/02 09:09:49;;;;;;;6.63;2.40;;;;;;;;;;5083396;28;20493;-67
2022/11/02 09:12:16;;;;;;;5.80;1.80;;;;;;;;;;5084266;28;20449;-66
2022/11/02 09:14:44;;;;;;;7.23;2.23;;;;;;;;;;5087532;28;20470;-67
2022/11/02 09:17:11;;;;;;;10.40;2.37;;;;;;;;;;5090101;28;20448;-68
2022/11/02 09:19:38;;;;;;;4.57;1.70;;;;;;;;;;5090979;28;20454;-67
2022/11/02 09:22:05;;;;;;;8.90;2.50;;;;;;;;;;5088077;28;20439;-67
2022/11/02 09:24:33;;;;;;;9.70;2.80;;;;;;;;;;5088267;28;20494;-67
2022/11/02 09:27:00;;;;;;;4.57;2.57;;;;;;;;;;5087340;28;20439;-66
2022/11/02 09:29:27;;;;;;;8.13;2.53;;;;;;;;;;5086908;28;20442;-68
2022/11/02 09:31:55;;;;;;;5.83;2.10;;;;;;;;;;5085184;28;20454;-67
2022/11/02 09:34:22;;;;;;;7.50;2.10;;;;;;;;;;5086009;28;20839;-66
2022/11/02 09:36:49;;;;;;;3.63;1.73;;;;;;;;;;5081141;28;20470;-67
2022/11/02 09:39:17;;;;;;;3.87;2.20;;;;;;;;;;5077993;28;20450;-67
2022/11/02 09:41:48;;;;;;;8.07;2.07;;;;;;;;;;5077722;28;20450;-67
2022/11/02 09:44:19;;;;;;;5.10;2.00;;;;;;;;;;5078228;28;20562;-67
2022/11/02 09:46:47;;;;;;;3.63;2.00;;;;;;;;;;5077824;28;20928;-66
2022/11/02 09:49:16;;;;;;;5.63;1.97;;;;;;;;;;5077154;28;20454;-67
2022/11/02 09:51:45;;;;;;;4.17;1.80;;;;;;;;;;5077038;28;20482;-67
2022/11/02 09:54:15;;;;;;;6.83;1.80;;;;;;;;;;5077529;28;20947;-67
2022/11/02 09:56:43;;;;;;;5.17;1.70;;;;;;;;;;5077387;28;20925;-66
2022/11/02 09:59:13;;;;;;;3.57;1.47;;;;;;;;;;5078021;28;20439;-66
2022/11/02 10:01:57;;;;;;;6.00;1.60;;;;;;;;;;5080817;28;20463;-67
2022/11/02 10:04:37;;;;;;;7.57;1.63;;;;;;;;;;5090941;28;20558;-67
2022/11/02 10:07:07;;;;;;;7.10;2.30;;;;;;;;;;5093072;28;20439;-66
2022/11/02 10:09:38;;;;;;;6.73;1.67;;;;;;;;;;5088251;28;20459;-67
2022/11/02 10:12:07;;;;;;;11.70;2.20;;;;;;;;;;5091674;28;20416;-67
2022/11/02 10:14:35;;;;;;;8.97;1.70;;;;;;;;;;5096326;28;20456;-67
2022/11/02 10:17:05;;;;;;;5.37;1.83;;;;;;;;;;5095975;28;20454;-67
2022/11/02 10:19:35;;;;;;;3.60;1.03;;;;;;;;;;5095334;28;20459;-67
2022/11/02 10:22:02;;;;;;;3.70;1.70;;;;;;;;;;5103996;22;20432;-67
2022/11/02 10:24:32;;;;;;;3.77;1.57;;;;;;;;;;5054722;28;20454;-68
2022/11/02 10:27:01;;;;;;;6.47;1.60;;;;;;;;;;5054359;28;20441;-68
2022/11/02 10:29:34;;;;;;;2.93;1.10;;;;;;;;;;5054472;28;20540;-67
2022/11/02 10:32:02;;;;;;;7.97;2.27;;;;;;;;;;5054661;28;20463;-68
2022/11/02 10:34:30;;;;;;;5.50;1.63;;;;;;;;;;5054647;28;20445;-66
2022/11/02 10:37:05;;;;;;;4.13;1.33;;;;;;;;;;5054565;28;20502;-67
2022/11/02 10:39:36;;;;;;;3.00;1.07;;;;;;;;;;5054578;28;20429;-67
2022/11/02 10:42:15;;;;;;;4.10;1.40;;;;;;;;;;5054026;28;20464;-67
2022/11/02 10:44:48;;;;;;;3.00;1.30;;;;;;;;;;5053916;28;20447;-66
2022/11/02 10:47:17;;;;;;;8.23;1.40;;;;;;;;;;5056206;28;20434;-66
2022/11/02 10:49:55;;;;;;;6.50;1.80;;;;;;;;;;5054007;28;20473;-67
2022/11/02 10:52:24;;;;;;;7.73;1.43;;;;;;;;;;5054267;28;20461;-66
2022/11/02 10:54:52;;;;;;;2.33;0.97;;;;;;;;;;5053727;28;20446;-65
2022/11/02 10:57:20;;;;;;;4.27;1.93;;;;;;;;;;5056796;28;20438;-68
2022/11/02 11:00:11;;;;;;;3.93;1.33;;;;;;;;;;5056143;28;20455;-68
2022/11/02 11:02:38;;;;;;;4.10;1.90;;;;;;;;;;5056847;28;20464;-69
2022/11/02 11:05:13;;;;;;;5.70;1.60;;;;;;;;;;5055866;28;20459;-67
2022/11/02 11:07:44;;;;;;;4.43;1.37;;;;;;;;;;5059990;28;20455;-68
2022/11/02 11:10:14;;;;;;;5.07;1.30;;;;;;;;;;5063343;28;20441;-68
2022/11/02 11:12:44;;;;;;;2.77;1.30;;;;;;;;;;5064029;28;20456;-67
2022/11/02 11:15:22;;;;;;;4.83;3.20;;;;;;;;;;5058398;28;20555;-68
2022/11/02 11:17:49;;;;;;;5.87;1.67;;;;;;;;;;5057254;28;20434;-67
2022/11/02 11:20:31;;;;;;;5.60;2.00;;;;;;;;;;5058756;28;20440;-65
2022/11/02 11:23:10;;;;;;;6.27;1.20;;;;;;;;;;5058620;28;20884;-66
2022/11/02 11:25:37;;;;;;;5.50;1.20;;;;;;;;;;5055646;28;20458;-65
2022/11/02 11:28:22;;;;;;;3.20;1.17;;;;;;;;;;5057097;28;20444;-65
2022/11/02 11:30:51;;;;;;;7.13;1.70;;;;;;;;;;5056551;28;20522;-65
2022/11/02 11:33:21;;;;;;;3.60;1.27;;;;;;;;;;5054860;28;20579;-63
2022/11/02 11:35:49;;;;;;;4.60;1.33;;;;;;;;;;5053354;28;20945;-65
2022/11/02 11:38:20;;;;;;;2.87;1.67;;;;;;;;;;5053840;28;20551;-64
2022/11/02 11:40:52;;;;;;;5.07;1.37;;;;;;;;;;5053647;28;20448;-63
2022/11/02 11:43:20;;;;;;;4.20;1.27;;;;;;;;;;5055187;28;20502;-64
2022/11/02 11:45:54;;;;;;;6.07;1.80;;;;;;;;;;5053866;28;20479;-63
2022/11/02 11:48:26;;;;;;;4.73;1.70;;;;;;;;;;5053216;28;20603;-63
2022/11/02 11:50:53;;;;;;;5.60;1.77;;;;;;;;;;5053833;28;20465;-65
2022/11/02 11:53:23;;;;;;;7.40;1.27;;;;;;;;;;5052750;28;20464;-66
2022/11/02 11:55:51;;;;;;;2.47;1.13;;;;;;;;;;5053916;28;20453;-65
2022/11/02 11:58:20;;;;;;;2.70;1.30;;;;;;;;;;5053747;28;20448;-65
2022/11/02 12:01:02;;;;;;;6.90;1.83;;;;;;;;;;5053337;28;20966;-63
2022/11/02 12:03:29;;;;;;;4.40;1.47;;;;;;;;;;5054148;28;20467;-64
2022/11/02 12:05:59;;;;;;;6.67;2.00;;;;;;;;;;5053417;28;20460;-64
2022/11/02 12:08:35;;;;;;;5.30;1.40;;;;;;;;;;5052953;28;20448;-67
2022/11/02 12:11:12;;;;;;;3.80;1.77;;;;;;;;;;5053771;28;20472;-63
2022/11/02 12:13:46;;;;;;;6.20;1.37;;;;;;;;;;5053358;28;20842;-65
2022/11/02 12:16:16;;;;;;;5.00;1.37;;;;;;;;;;5053670;28;20429;-65
2022/11/02 12:19:01;;;;;;;3.90;1.07;;;;;;;;;;5053789;28;20526;-62
2022/11/02 12:21:39;;;;;;;9.53;1.47;;;;;;;;;;5053199;28;20776;-64
2022/11/02 12:24:24;;;;;;;6.17;1.37;;;;;;;;;;5054847;28;20476;-67
2022/11/02 12:26:58;;;;;;;4.03;1.10;;;;;;;;;;5055961;28;20451;-67
2022/11/02 12:29:35;;;;;;;5.07;1.63;;;;;;;;;;5053567;28;20858;-66
2022/11/02 12:32:09;;;;;;;6.80;1.70;;;;;;;;;;5056985;28;20489;-66
2022/11/02 12:34:57;;;;;;;5.90;2.43;;;;;;;;;;5058392;28;20454;-65
2022/11/02 12:37:28;;;;;;;5.87;1.40;;;;;;;;;;5057986;28;20459;-67
2022/11/02 12:40:04;;;;;;;6.90;1.50;;;;;;;;;;5057809;28;20436;-66
2022/11/02 12:42:36;;;;;;;6.17;2.20;;;;;;;;;;5058051;28;20464;-67
2022/11/02 12:45:08;;;;;;;3.97;1.50;;;;;;;;;;5057440;28;20930;-66
2022/11/02 12:47:40;;;;;;;6.00;1.37;;;;;;;;;;5057099;28;20897;-65
2022/11/02 12:50:14;;;;;;;3.87;1.50;;;;;;;;;;5060275;28;20905;-65
2022/11/02 12:52:47;;;;;;;4.70;1.20;;;;;;;;;;5056764;28;20911;-65
2022/11/02 12:55:18;;;;;;;9.00;1.53;;;;;;;;;;5057169;28;20463;-62
2022/11/02 12:57:45;;;;;;;6.60;1.70;;;;;;;;;;5057018;28;20939;-65
2022/11/02 13:00:17;;;;;;;9.33;1.83;;;;;;;;;;5057157;28;20494;-66
2022/11/02 13:02:48;;;;;;;4.57;1.27;;;;;;;;;;5056207;28;20475;-66
2022/11/02 13:05:17;;;;;;;6.90;1.50;;;;;;;;;;5056407;28;20441;-64
2022/11/02 13:07:46;;;;;;;5.40;1.37;;;;;;;;;;5056364;28;20508;-66
2022/11/02 13:10:17;;;;;;;5.50;1.63;;;;;;;;;;5055955;28;20447;-66
2022/11/02 13:12:45;;;;;;;6.40;1.40;;;;;;;;;;5056977;28;20487;-65
2022/11/02 13:15:14;;;;;;;3.50;1.20;;;;;;;;;;5056312;28;20447;-66
2022/11/02 13:17:44;;;;;;;4.17;1.40;;;;;;;;;;5056564;28;20451;-67
2022/11/02 13:20:15;;;;;;;4.83;1.43;;;;;;;;;;5057231;28;20788;-67
2022/11/02 13:22:43;;;;;;;5.63;1.90;;;;;;;;;;5056323;28;20480;-64
2022/11/02 13:25:15;;;;;;;4.40;1.37;;;;;;;;;;5056692;28;20481;-65
2022/11/02 13:27:48;;;;;;;4.00;1.67;;;;;;;;;;5056179;28;20926;-65
2022/11/02 13:30:16;;;;;;;6.70;2.33;;;;;;;;;;5056874;28;20916;-67
2022/11/02 13:32:45;;;;;;;6.90;1.53;;;;;;;;;;5056774;28;20540;-65
2022/11/02 13:35:18;;;;;;;4.00;1.30;;;;;;;;;;5056755;28;20912;-66
2022/11/02 13:37:46;;;;;;;6.37;1.93;;;;;;;;;;5056994;28;20443;-64
2022/11/02 13:40:16;;;;;;;9.60;2.07;;;;;;;;;;5056002;28;20447;-64
2022/11/02 13:42:58;;;;;;;5.40;1.43;;;;;;;;;;5056933;28;20470;-64
2022/11/02 13:45:36;;;;;;;4.63;2.00;;;;;;;;;;5054735;28;20524;-64
2022/11/02 13:48:22;;;;;;;3.53;1.97;;;;;;;;;;5056959;28;20427;-67
2022/11/02 13:50:51;;;;;;;10.40;2.57;;;;;;;;;;5057405;28;20429;-64
2022/11/02 13:53:20;;;;;;;8.93;2.10;;;;;;;;;;5055353;28;20570;-64
2022/11/02 13:55:51;;;;;;;4.83;1.47;;;;;;;;;;5055256;28;20475;-64
2022/11/02 13:58:21;;;;;;;3.73;1.13;;;;;;;;;;5055678;28;20423;-65
2022/11/02 14:00:50;;;;;;;6.20;1.33;;;;;;;;;;5055949;28;20440;-66
2022/11/02 14:03:18;;;;;;;5.43;1.93;;;;;;;;;;5055339;28;20466;-64
2022/11/02 14:05:48;;;;;;;3.37;1.60;;;;;;;;;;5055160;28;20816;-64
2022/11/02 14:08:21;;;;;;;4.67;1.30;;;;;;;;;;5055429;28;20435;-65
2022/11/02 14:11:02;;;;;;;4.17;1.60;;;;;;;;;;5055150;28;20461;-64
2022/11/02 14:13:44;;;;;;;7.03;1.77;;;;;;;;;;5055014;28;20467;-65
2022/11/02 14:16:13;;;;;;;4.10;1.10;;;;;;;;;;5053684;28;20451;-65
2022/11/02 14:18:40;;;;;;;6.07;1.10;;;;;;;;;;5054689;28;20802;-66
2022/11/02 14:21:25;;;;;;;4.50;1.80;;;;;;;;;;5054853;28;20792;-67
2022/11/02 14:23:52;;;;;;;3.10;1.10;;;;;;;;;;5054406;28;20476;-65
2022/11/02 14:26:33;;;;;;;3.60;1.27;;;;;;;;;;5055255;28;20455;-67
2022/11/02 14:29:06;;;;;;;6.70;1.90;;;;;;;;;;5055419;28;20451;-65
2022/11/02 14:31:44;;;;;;;4.40;1.87;;;;;;;;;;5055674;28;20468;-67
2022/11/02 14:34:29;;;;;;;6.80;1.80;;;;;;;;;;5055290;28;20926;-65
2022/11/02 14:37:02;;;;;;;6.57;2.17;;;;;;;;;;5057583;28;20825;-65
2022/11/02 14:39:37;;;;;;;6.80;1.30;;;;;;;;;;5055102;28;20431;-66
2022/11/02 14:42:22;;;;;;;5.43;1.77;;;;;;;;;;5055835;28;20464;-65
2022/11/02 14:45:03;;;;;;;6.90;1.43;;;;;;;;;;5055707;28;20429;-64
2022/11/02 14:47:33;;;;;;;7.93;1.73;;;;;;;;;;5056116;28;20432;-65
2022/11/02 14:50:03;;;;;;;4.47;1.40;;;;;;;;;;5055557;28;20444;-65
2022/11/02 14:52:32;;;;;;;5.40;1.40;;;;;;;;;;5054578;28;21003;-65
2022/11/02 14:55:01;;;;;;;4.83;1.67;;;;;;;;;;5054884;28;20456;-64
2022/11/02 14:57:29;;;;;;;7.17;1.63;;;;;;;;;;5055986;28;20448;-64
2022/11/02 14:59:58;;;;;;;5.83;1.70;;;;;;;;;;5054996;28;20451;-65
2022/11/02 15:02:28;;;;;;;6.27;1.27;;;;;;;;;;5055600;28;20472;-64
2022/11/02 15:04:58;;;;;;;3.87;1.50;;;;;;;;;;5055710;28;20429;-63
2022/11/02 15:07:30;;;;;;;5.00;1.20;;;;;;;;;;5055232;28;20451;-65
2022/11/02 15:09:58;;;;;;;7.10;1.53;;;;;;;;;;5054811;28;20433;-64
2022/11/02 15:12:33;;;;;;;6.57;2.17;;;;;;;;;;5053825;28;20493;-64